Time;durP1;ratioP1;P1;durP2;ratioP2;P2;SDS_P1;SDS_P2;PMS_P1;PMS_P2;Temp;Humidity;BMP_temperature;BMP_pressure;BME280_temperature;BME280_humidity;BME280_pressure;Samples;Min_cycle;Max_cycle;Signal;HPM_P1;HPM_P2
2023/12/25 00:01:23;;;;;;;2.40;1.50;;;11.80;98.00;;;;;;4954710;28;20463;-68
2023/12/25 00:03:50;;;;;;;1.90;1.40;;;11.80;98.00;;;;;;4954636;29;20469;-69
2023/12/25 00:06:17;;;;;;;2.43;1.60;;;11.80;98.00;;;;;;4954776;29;20461;-70
2023/12/25 00:08:44;;;;;;;2.00;1.50;;;11.90;98.00;;;;;;4954455;29;21053;-69
2023/12/25 00:11:12;;;;;;;2.13;1.53;;;11.80;98.00;;;;;;4954602;29;20949;-71
2023/12/25 00:13:40;;;;;;;1.60;1.27;;;11.70;98.00;;;;;;4938334;29;20468;-70
2023/12/25 00:16:07;;;;;;;2.63;1.70;;;11.70;98.00;;;;;;4955232;29;21042;-70
2023/12/25 00:18:36;;;;;;;2.23;1.50;;;11.70;98.00;;;;;;4955057;29;20673;-69
2023/12/25 00:21:04;;;;;;;2.10;1.40;;;11.70;98.00;;;;;;4955048;28;20465;-68
2023/12/25 00:23:31;;;;;;;1.83;1.50;;;11.70;98.00;;;;;;4955078;29;20532;-70
2023/12/25 00:25:58;;;;;;;1.73;1.50;;;11.70;98.00;;;;;;4938067;29;20463;-68
2023/12/25 00:28:28;;;;;;;2.03;1.50;;;11.70;98.00;;;;;;4954796;29;20985;-67
2023/12/25 00:30:57;;;;;;;1.40;1.27;;;11.70;98.00;;;;;;4937026;29;20551;-66
2023/12/25 00:33:24;;;;;;;2.00;1.53;;;11.70;98.00;;;;;;4954282;29;20516;-69
2023/12/25 00:35:54;;;;;;;1.80;1.50;;;11.70;98.00;;;;;;4953840;29;20457;-68
2023/12/25 00:38:21;;;;;;;2.37;1.60;;;11.60;98.00;;;;;;4954240;28;20469;-68
2023/12/25 00:40:48;;;;;;;6.53;1.50;;;11.60;98.00;;;;;;4954491;29;20458;-69
2023/12/25 00:43:15;;;;;;;1.77;1.47;;;11.60;98.00;;;;;;4954369;29;20475;-71
2023/12/25 00:45:43;;;;;;;1.53;1.50;;;11.70;98.00;;;;;;4954261;29;20490;-68
2023/12/25 00:48:11;;;;;;;2.17;1.70;;;11.70;98.00;;;;;;4954359;29;20494;-69
2023/12/25 00:53:15;;;;;;;1.80;1.47;;;11.60;98.00;;;;;;4887637;26;20468;-68
2023/12/25 00:55:42;;;;;;;1.93;1.60;;;11.60;98.00;;;;;;4953053;29;20472;-68
2023/12/25 00:58:09;;;;;;;1.40;1.30;;;11.50;98.00;;;;;;4954288;28;20466;-67
2023/12/25 01:00:36;;;;;;;1.60;1.40;;;11.50;98.00;;;;;;4954417;29;20507;-70
2023/12/25 01:03:03;;;;;;;2.20;1.50;;;11.60;98.00;;;;;;4954373;28;20535;-70
2023/12/25 01:05:31;;;;;;;1.90;1.60;;;11.60;98.00;;;;;;4953858;29;20827;-71
2023/12/25 01:07:58;;;;;;;2.63;1.70;;;11.50;98.00;;;;;;4953432;29;20715;-69
2023/12/25 01:10:26;;;;;;;1.47;1.40;;;11.50;98.00;;;;;;4953513;29;20465;-68
2023/12/25 01:12:53;;;;;;;1.73;1.43;;;11.50;98.00;;;;;;4920871;29;20464;-67
2023/12/25 01:15:22;;;;;;;2.17;1.30;;;11.60;98.00;;;;;;4953386;29;20461;-68
2023/12/25 01:17:49;;;;;;;2.20;1.60;;;11.60;98.00;;;;;;4953510;29;20457;-69
2023/12/25 01:20:16;;;;;;;1.80;1.47;;;11.50;98.00;;;;;;4953409;29;20471;-68
2023/12/25 01:22:43;;;;;;;1.77;1.40;;;11.50;98.00;;;;;;4953240;29;20465;-68
2023/12/25 01:25:10;;;;;;;1.80;1.50;;;11.50;98.00;;;;;;4953037;29;20460;-68
2023/12/25 01:27:41;;;;;;;2.47;1.50;;;11.50;98.00;;;;;;4936203;29;20579;-69
2023/12/25 01:30:10;;;;;;;1.40;1.27;;;11.50;98.00;;;;;;4936527;29;20542;-69
2023/12/25 01:32:37;;;;;;;1.97;1.47;;;11.50;98.00;;;;;;4936395;29;20508;-69
2023/12/25 01:35:05;;;;;;;1.67;1.30;;;11.50;98.00;;;;;;4953375;28;20466;-69
2023/12/25 01:37:40;;;;;;;2.63;1.40;;;11.50;98.00;;;;;;4953310;29;20468;-69
2023/12/25 01:40:09;;;;;;;2.63;1.70;;;11.50;98.00;;;;;;4937346;29;20455;-69
2023/12/25 01:42:41;;;;;;;2.13;1.60;;;11.50;98.00;;;;;;4936230;29;20465;-69
2023/12/25 01:45:10;;;;;;;1.50;1.40;;;11.50;98.00;;;;;;4953313;29;20560;-68
2023/12/25 01:47:37;;;;;;;1.73;1.53;;;11.50;98.00;;;;;;4952882;29;20552;-70
2023/12/25 01:50:08;;;;;;;1.50;1.30;;;11.50;98.00;;;;;;4953548;29;20482;-69
2023/12/25 01:52:35;;;;;;;1.43;1.37;;;11.50;98.00;;;;;;4952979;28;20907;-70
2023/12/25 01:55:02;;;;;;;1.87;1.50;;;11.50;98.00;;;;;;4953073;29;20979;-68
2023/12/25 01:57:32;;;;;;;1.70;1.47;;;11.50;98.00;;;;;;4936062;29;20488;-68
2023/12/25 02:00:00;;;;;;;2.03;1.50;;;11.50;98.00;;;;;;4936141;29;20514;-70
2023/12/25 02:02:27;;;;;;;1.40;1.27;;;11.50;98.00;;;;;;4952829;29;20454;-69
2023/12/25 02:04:56;;;;;;;1.57;1.43;;;11.50;98.00;;;;;;4952942;29;20461;-69
2023/12/25 02:07:23;;;;;;;2.03;1.60;;;11.50;98.00;;;;;;4936885;29;20822;-69
2023/12/25 02:09:51;;;;;;;2.23;1.40;;;11.50;98.00;;;;;;4953611;29;20496;-69
2023/12/25 02:12:18;;;;;;;2.03;1.43;;;11.50;98.00;;;;;;4953613;29;20494;-68
2023/12/25 02:14:45;;;;;;;1.50;1.33;;;11.50;98.00;;;;;;4955926;28;20464;-68
2023/12/25 02:17:15;;;;;;;1.90;1.40;;;11.50;98.00;;;;;;4957236;29;20537;-68
2023/12/25 02:19:44;;;;;;;2.20;1.60;;;11.50;98.00;;;;;;4940133;29;20497;-68
2023/12/25 02:22:12;;;;;;;1.53;1.30;;;11.40;98.00;;;;;;4957432;29;20499;-68
2023/12/25 02:24:45;;;;;;;1.97;1.53;;;11.50;98.00;;;;;;4957284;29;20482;-70
2023/12/25 02:27:14;;;;;;;1.77;1.50;;;11.50;98.00;;;;;;4957115;29;20465;-69
2023/12/25 02:29:41;;;;;;;1.90;1.40;;;11.50;98.00;;;;;;4957299;29;20482;-68
2023/12/25 02:32:08;;;;;;;1.80;1.60;;;11.50;98.00;;;;;;4957303;28;20487;-70
2023/12/25 02:34:35;;;;;;;1.60;1.43;;;11.40;98.00;;;;;;4957300;29;20454;-69
2023/12/25 02:37:02;;;;;;;1.40;1.30;;;11.50;98.00;;;;;;4957075;29;20468;-68
2023/12/25 02:39:29;;;;;;;1.87;1.47;;;11.50;98.00;;;;;;4940225;29;20814;-69
2023/12/25 02:41:56;;;;;;;1.67;1.40;;;11.60;98.00;;;;;;4940076;29;20453;-68
2023/12/25 02:44:25;;;;;;;2.33;1.40;;;11.60;98.00;;;;;;4956474;29;20491;-68
2023/12/25 02:46:52;;;;;;;1.40;1.20;;;11.60;98.00;;;;;;4956457;29;20462;-68
2023/12/25 02:49:19;;;;;;;1.70;1.40;;;11.60;98.00;;;;;;4956560;29;20496;-69
2023/12/25 02:51:46;;;;;;;1.50;1.40;;;11.60;98.00;;;;;;4956249;28;20495;-69
2023/12/25 02:54:13;;;;;;;1.40;1.37;;;11.50;98.00;;;;;;4939396;29;20461;-69
2023/12/25 02:56:41;;;;;;;2.70;1.60;;;11.50;98.00;;;;;;4956161;29;21012;-68
2023/12/25 02:59:08;;;;;;;3.30;1.53;;;11.50;98.00;;;;;;4939611;29;20519;-69
2023/12/25 03:01:36;;;;;;;2.37;1.40;;;11.40;98.00;;;;;;4956129;29;21210;-70
2023/12/25 03:04:04;;;;;;;2.00;1.53;;;11.40;98.00;;;;;;4939281;29;20457;-69
2023/12/25 03:06:32;;;;;;;2.73;1.50;;;11.50;98.00;;;;;;4956234;29;20872;-70
2023/12/25 03:08:59;;;;;;;1.60;1.50;;;11.50;98.00;;;;;;4939137;29;20496;-68
2023/12/25 03:11:26;;;;;;;1.40;1.30;;;11.50;98.00;;;;;;4955990;28;20853;-68
2023/12/25 03:13:53;;;;;;;1.50;1.50;;;11.40;98.00;;;;;;4956323;29;20458;-70
2023/12/25 03:18:56;;;;;;;2.43;1.60;;;11.40;98.00;;;;;;4935465;29;21009;-67
2023/12/25 03:21:23;;;;;;;1.80;1.30;;;11.30;98.00;;;;;;4936424;29;20458;-68
2023/12/25 03:23:50;;;;;;;2.07;1.70;;;11.30;98.00;;;;;;4935699;29;20459;-67
2023/12/25 03:26:17;;;;;;;2.03;1.63;;;11.30;98.00;;;;;;4933520;29;20457;-68
2023/12/25 03:28:44;;;;;;;1.67;1.47;;;11.30;98.00;;;;;;4934389;29;20490;-66
2023/12/25 03:31:11;;;;;;;2.10;1.53;;;11.30;98.00;;;;;;4934698;29;20480;-66
2023/12/25 03:33:38;;;;;;;1.57;1.33;;;11.20;98.00;;;;;;4935603;29;21008;-68
2023/12/25 03:36:09;;;;;;;1.60;1.30;;;11.20;98.00;;;;;;4919435;29;20450;-67
2023/12/25 03:38:36;;;;;;;1.80;1.30;;;11.20;98.00;;;;;;4936488;29;20490;-67
2023/12/25 03:41:03;;;;;;;3.27;1.80;;;11.10;98.00;;;;;;4936321;29;20459;-66
2023/12/25 03:43:30;;;;;;;1.50;1.40;;;11.20;98.00;;;;;;4936152;29;20466;-67
2023/12/25 03:45:58;;;;;;;3.00;1.50;;;11.20;98.00;;;;;;4935943;29;20461;-66
2023/12/25 03:48:25;;;;;;;2.13;1.33;;;11.20;98.00;;;;;;4935693;29;20591;-66
2023/12/25 03:50:52;;;;;;;2.50;1.40;;;11.20;98.00;;;;;;4935715;29;20463;-66
2023/12/25 03:53:22;;;;;;;1.60;1.40;;;11.10;98.00;;;;;;4935586;29;20477;-66
2023/12/25 03:55:49;;;;;;;1.63;1.37;;;11.10;98.00;;;;;;4918680;29;20461;-66
2023/12/25 03:58:17;;;;;;;2.70;1.50;;;11.10;98.00;;;;;;4935797;29;20456;-67
2023/12/25 04:00:44;;;;;;;1.93;1.60;;;11.10;98.00;;;;;;4935512;29;20447;-67
2023/12/25 04:03:11;;;;;;;1.30;1.30;;;11.10;98.00;;;;;;4934852;29;20458;-66
2023/12/25 04:05:39;;;;;;;1.50;1.37;;;11.10;98.00;;;;;;4935509;29;20492;-66
2023/12/25 04:08:06;;;;;;;1.73;1.50;;;11.10;98.00;;;;;;4917917;29;20492;-66
2023/12/25 04:10:37;;;;;;;1.53;1.37;;;11.10;98.00;;;;;;4918488;29;20809;-67
2023/12/25 04:13:04;;;;;;;1.83;1.43;;;11.10;98.00;;;;;;4935345;29;20989;-66
2023/12/25 04:15:31;;;;;;;2.03;1.40;;;11.10;98.00;;;;;;4935185;29;20455;-67
2023/12/25 04:17:58;;;;;;;2.20;1.50;;;11.10;98.00;;;;;;4918237;29;20953;-67
2023/12/25 04:20:25;;;;;;;1.80;1.30;;;11.10;98.00;;;;;;4918335;29;20463;-66
2023/12/25 04:22:52;;;;;;;4.10;1.60;;;11.10;98.00;;;;;;4935258;29;20822;-66
2023/12/25 04:25:19;;;;;;;1.53;1.40;;;11.10;98.00;;;;;;4902907;29;20462;-67
2023/12/25 04:27:48;;;;;;;1.70;1.30;;;11.10;98.00;;;;;;4935262;29;20658;-67
2023/12/25 04:30:15;;;;;;;2.33;1.50;;;11.10;98.00;;;;;;4935192;29;20498;-67
2023/12/25 04:32:43;;;;;;;1.50;1.30;;;11.20;98.00;;;;;;4935177;29;20479;-67
2023/12/25 04:35:10;;;;;;;2.07;1.40;;;11.10;98.00;;;;;;4918425;29;20465;-67
2023/12/25 04:37:39;;;;;;;1.90;1.50;;;11.20;98.00;;;;;;4934366;29;20458;-66
2023/12/25 04:40:06;;;;;;;1.80;1.40;;;11.20;98.00;;;;;;4934641;29;20461;-66
2023/12/25 04:42:33;;;;;;;1.73;1.40;;;11.30;98.00;;;;;;4934711;29;20854;-67
2023/12/25 04:45:02;;;;;;;1.83;1.50;;;11.30;98.00;;;;;;4952637;29;20504;-66
2023/12/25 04:47:29;;;;;;;1.63;1.40;;;11.30;98.00;;;;;;4953097;29;20490;-67
2023/12/25 04:49:56;;;;;;;1.80;1.40;;;11.30;98.00;;;;;;4953577;29;20492;-67
2023/12/25 04:52:23;;;;;;;1.80;1.47;;;11.30;98.00;;;;;;4936529;29;20463;-66
2023/12/25 04:54:50;;;;;;;1.70;1.40;;;11.30;98.00;;;;;;4936923;29;20816;-67
2023/12/25 04:57:17;;;;;;;2.40;1.53;;;11.30;98.00;;;;;;4953785;29;20453;-67
2023/12/25 04:59:46;;;;;;;1.40;1.40;;;11.20;98.00;;;;;;4953638;29;20455;-66
2023/12/25 05:02:14;;;;;;;1.70;1.37;;;11.20;98.00;;;;;;4936676;29;20454;-66
2023/12/25 05:04:41;;;;;;;1.97;1.30;;;11.20;98.00;;;;;;4953433;29;20458;-67
2023/12/25 05:07:08;;;;;;;1.60;1.23;;;11.20;98.00;;;;;;4953144;29;20952;-67
2023/12/25 05:09:35;;;;;;;1.90;1.43;;;11.20;98.00;;;;;;4953375;29;20512;-67
2023/12/25 05:12:03;;;;;;;1.83;1.43;;;11.20;98.00;;;;;;4953305;29;20944;-66
2023/12/25 05:14:30;;;;;;;1.83;1.30;;;11.30;98.00;;;;;;4953353;29;20456;-67
2023/12/25 05:16:58;;;;;;;5.97;1.70;;;11.30;98.00;;;;;;4953293;29;20839;-67
2023/12/25 05:19:26;;;;;;;1.97;1.57;;;11.30;98.00;;;;;;4953480;29;20849;-67
2023/12/25 05:21:53;;;;;;;1.97;1.47;;;11.30;98.00;;;;;;4953487;29;20458;-68
2023/12/25 05:24:20;;;;;;;2.27;1.50;;;11.30;98.00;;;;;;4952060;29;20502;-66
2023/12/25 05:26:47;;;;;;;4.70;1.37;;;11.30;98.00;;;;;;4953131;29;20456;-67
2023/12/25 05:29:14;;;;;;;1.97;1.30;;;11.20;98.00;;;;;;4953170;29;20492;-67
2023/12/25 05:31:41;;;;;;;1.70;1.30;;;11.20;98.00;;;;;;4953670;29;20864;-68
2023/12/25 05:34:08;;;;;;;1.50;1.40;;;11.20;98.00;;;;;;4953173;29;20463;-66
2023/12/25 05:36:37;;;;;;;2.43;1.40;;;11.30;98.00;;;;;;4953055;29;20460;-66
2023/12/25 05:39:08;;;;;;;1.60;1.40;;;11.40;98.00;;;;;;4953100;29;20465;-67
2023/12/25 05:41:44;;;;;;;2.27;1.30;;;11.40;98.00;;;;;;4953361;29;20550;-67
2023/12/25 05:44:12;;;;;;;1.60;1.50;;;11.30;98.00;;;;;;4953480;29;20465;-67
2023/12/25 05:46:39;;;;;;;1.87;1.70;;;11.30;98.00;;;;;;4953533;29;20466;-67
2023/12/25 05:49:06;;;;;;;1.87;1.40;;;11.30;98.00;;;;;;4954777;28;21131;-67
2023/12/25 05:51:34;;;;;;;4.17;1.70;;;11.30;98.00;;;;;;4956935;29;20453;-67
2023/12/25 05:54:02;;;;;;;1.80;1.40;;;11.30;98.00;;;;;;4957006;29;20469;-67
2023/12/25 05:56:29;;;;;;;1.73;1.53;;;11.20;98.00;;;;;;4956977;29;20463;-66
2023/12/25 05:58:56;;;;;;;1.60;1.40;;;11.20;98.00;;;;;;4957139;29;21065;-67
2023/12/25 06:01:23;;;;;;;2.40;1.40;;;11.20;98.00;;;;;;4939969;29;20459;-67
2023/12/25 06:03:51;;;;;;;1.70;1.57;;;11.20;98.00;;;;;;4939953;29;20470;-67
2023/12/25 06:06:18;;;;;;;2.07;1.50;;;11.20;98.00;;;;;;4956719;29;20458;-67
2023/12/25 06:08:47;;;;;;;1.63;1.50;;;11.20;98.00;;;;;;4956877;29;20461;-66
2023/12/25 06:11:15;;;;;;;2.80;1.50;;;11.10;98.00;;;;;;4956950;29;20502;-67
2023/12/25 06:13:43;;;;;;;1.70;1.50;;;11.00;98.00;;;;;;4956961;29;20461;-67
2023/12/25 06:16:10;;;;;;;1.63;1.43;;;11.00;98.00;;;;;;4940144;29;20508;-67
2023/12/25 06:18:38;;;;;;;1.90;1.43;;;11.00;98.00;;;;;;4956898;29;20979;-67
2023/12/25 06:21:05;;;;;;;1.40;1.33;;;11.00;98.00;;;;;;4956398;29;20463;-67
2023/12/25 06:23:33;;;;;;;3.07;1.40;;;11.00;98.00;;;;;;4957203;29;20484;-67
2023/12/25 06:25:59;;;;;;;4.60;1.40;;;11.00;98.00;;;;;;4924360;29;20835;-67
2023/12/25 06:28:27;;;;;;;1.57;1.43;;;11.10;98.00;;;;;;4957543;29;20988;-67
2023/12/25 06:30:55;;;;;;;1.87;1.40;;;11.30;98.00;;;;;;4956814;29;20992;-66
2023/12/25 06:33:22;;;;;;;1.60;1.50;;;11.10;98.00;;;;;;4939486;29;20476;-66
2023/12/25 06:35:49;;;;;;;1.50;1.33;;;11.10;98.00;;;;;;4956183;29;20468;-66
2023/12/25 06:38:15;;;;;;;1.77;1.60;;;11.00;98.00;;;;;;4956193;29;20481;-67
2023/12/25 06:40:42;;;;;;;2.80;1.83;;;11.00;98.00;;;;;;4956761;29;20468;-67
2023/12/25 06:43:09;;;;;;;1.63;1.60;;;10.90;98.00;;;;;;4956399;29;20464;-68
2023/12/25 06:45:40;;;;;;;2.60;1.40;;;10.90;98.00;;;;;;4939006;29;20452;-68
2023/12/25 06:48:08;;;;;;;1.57;1.30;;;10.80;98.00;;;;;;4954484;29;20459;-66
2023/12/25 06:50:38;;;;;;;1.73;1.40;;;10.80;98.00;;;;;;4955749;29;20628;-66
2023/12/25 06:53:06;;;;;;;2.23;1.50;;;10.80;98.00;;;;;;4956298;29;20620;-66
2023/12/25 06:55:33;;;;;;;1.70;1.50;;;10.90;98.00;;;;;;4955804;29;20866;-68
2023/12/25 06:58:00;;;;;;;2.33;1.80;;;10.80;98.00;;;;;;4938756;29;20501;-67
2023/12/25 07:00:27;;;;;;;1.90;1.50;;;10.80;98.00;;;;;;4955483;28;20826;-66
2023/12/25 07:02:56;;;;;;;2.63;1.53;;;10.80;98.00;;;;;;4938721;29;20963;-64
2023/12/25 07:05:23;;;;;;;2.80;1.40;;;10.90;98.00;;;;;;4955821;29;20468;-64
2023/12/25 07:07:51;;;;;;;1.73;1.50;;;11.00;98.00;;;;;;4955741;29;20551;-64
2023/12/25 07:10:18;;;;;;;1.97;1.70;;;11.00;98.00;;;;;;4955540;29;20556;-64
2023/12/25 07:12:45;;;;;;;2.10;1.60;;;11.00;98.00;;;;;;4955915;29;20460;-64
2023/12/25 07:15:12;;;;;;;2.20;1.60;;;10.90;98.00;;;;;;4956192;29;20514;-64
2023/12/25 07:17:39;;;;;;;2.10;1.77;;;10.90;98.00;;;;;;4938917;29;20464;-65
2023/12/25 07:20:09;;;;;;;1.50;1.40;;;10.90;98.00;;;;;;4956040;29;20468;-65
2023/12/25 07:22:36;;;;;;;2.27;1.70;;;10.90;98.00;;;;;;4955562;29;20500;-65
2023/12/25 07:25:06;;;;;;;1.77;1.40;;;10.90;98.00;;;;;;4956096;29;20458;-65
2023/12/25 07:27:33;;;;;;;1.80;1.50;;;10.90;98.00;;;;;;4955962;29;20459;-64
2023/12/25 07:30:00;;;;;;;2.00;1.47;;;10.90;98.00;;;;;;4956010;29;20569;-64
2023/12/25 07:32:28;;;;;;;1.60;1.50;;;10.90;98.00;;;;;;4955879;29;20454;-64
2023/12/25 07:34:55;;;;;;;4.50;1.60;;;10.90;98.00;;;;;;4955031;29;21146;-64
2023/12/25 07:37:23;;;;;;;2.57;1.57;;;10.90;98.00;;;;;;4955505;29;20454;-64
2023/12/25 07:39:50;;;;;;;1.40;1.30;;;10.80;98.00;;;;;;4956040;29;20458;-64
2023/12/25 07:42:17;;;;;;;1.90;1.30;;;10.70;98.00;;;;;;4955553;29;20464;-64
2023/12/25 07:44:44;;;;;;;1.87;1.50;;;10.70;98.00;;;;;;4955423;29;20992;-64
2023/12/25 07:47:12;;;;;;;2.20;1.50;;;10.70;98.00;;;;;;4955733;29;20468;-64
2023/12/25 07:49:40;;;;;;;2.10;1.70;;;10.70;98.00;;;;;;4955315;29;20573;-64
2023/12/25 07:52:07;;;;;;;1.90;1.50;;;10.70;98.00;;;;;;4955719;29;20508;-64
2023/12/25 07:54:36;;;;;;;1.80;1.57;;;10.80;98.00;;;;;;4955646;29;20457;-64
2023/12/25 07:57:03;;;;;;;2.20;1.67;;;10.80;98.00;;;;;;4938291;29;21058;-65
2023/12/25 07:59:30;;;;;;;1.70;1.50;;;10.80;98.00;;;;;;4955541;29;20484;-65
2023/12/25 08:01:57;;;;;;;1.70;1.50;;;10.70;98.00;;;;;;4955751;29;20503;-65
2023/12/25 08:04:24;;;;;;;1.87;1.53;;;10.70;98.00;;;;;;4938662;29;20467;-65
2023/12/25 08:06:51;;;;;;;2.20;1.60;;;10.80;98.00;;;;;;4955495;29;20515;-64
2023/12/25 08:09:18;;;;;;;2.37;1.70;;;10.70;98.00;;;;;;4955264;29;20475;-65
2023/12/25 08:11:46;;;;;;;1.87;1.60;;;10.80;98.00;;;;;;4954610;28;20519;-63
2023/12/25 08:14:13;;;;;;;1.60;1.40;;;10.80;98.00;;;;;;4955289;29;20456;-64
2023/12/25 08:16:40;;;;;;;2.03;1.50;;;10.70;98.00;;;;;;4954835;29;20456;-63
2023/12/25 08:19:07;;;;;;;2.00;1.60;;;10.80;98.00;;;;;;4954936;29;20606;-64
2023/12/25 08:21:35;;;;;;;2.87;1.80;;;10.80;98.00;;;;;;4954529;29;20470;-63
2023/12/25 08:24:02;;;;;;;2.40;1.67;;;10.80;98.00;;;;;;4938004;29;20540;-62
2023/12/25 08:26:30;;;;;;;1.70;1.40;;;10.80;98.00;;;;;;4954788;29;20497;-61
2023/12/25 08:28:59;;;;;;;1.80;1.43;;;10.80;98.00;;;;;;4954578;29;20471;-65
2023/12/25 08:31:26;;;;;;;1.80;1.60;;;10.90;98.00;;;;;;4954380;29;20496;-64
2023/12/25 08:33:54;;;;;;;1.87;1.50;;;10.80;98.00;;;;;;4937217;29;21005;-64
2023/12/25 08:36:21;;;;;;;2.87;1.70;;;10.80;98.00;;;;;;4954552;29;20468;-64
2023/12/25 08:38:49;;;;;;;1.93;1.60;;;10.80;98.00;;;;;;4954332;29;20462;-64
2023/12/25 08:41:16;;;;;;;3.83;1.50;;;10.80;98.00;;;;;;4954539;29;20462;-63
2023/12/25 08:43:43;;;;;;;2.33;1.60;;;10.80;98.00;;;;;;4954528;29;20480;-63
2023/12/25 08:46:11;;;;;;;1.50;1.40;;;10.80;98.00;;;;;;4937739;29;20466;-62
2023/12/25 08:48:38;;;;;;;2.03;1.47;;;10.90;98.00;;;;;;4954240;29;20519;-63
2023/12/25 08:51:06;;;;;;;1.90;1.60;;;10.90;98.00;;;;;;4937246;29;21065;-64
2023/12/25 08:53:33;;;;;;;6.80;1.90;;;11.00;98.00;;;;;;4954353;29;20518;-64
2023/12/25 08:56:01;;;;;;;2.17;1.40;;;10.90;98.00;;;;;;4937565;29;20989;-64
2023/12/25 08:58:29;;;;;;;2.00;1.67;;;10.90;98.00;;;;;;4937366;29;20491;-64
2023/12/25 09:00:56;;;;;;;1.80;1.50;;;11.00;98.00;;;;;;4954674;29;20450;-64
2023/12/25 09:03:24;;;;;;;1.90;1.57;;;11.00;98.00;;;;;;4953395;29;20465;-63
2023/12/25 09:05:51;;;;;;;1.57;1.40;;;10.90;98.00;;;;;;4954244;29;20471;-64
2023/12/25 09:08:21;;;;;;;2.50;1.67;;;11.00;98.00;;;;;;4954162;29;20463;-64
2023/12/25 09:10:50;;;;;;;1.97;1.60;;;11.00;98.00;;;;;;4954319;29;20493;-64
2023/12/25 09:13:17;;;;;;;1.67;1.40;;;11.10;98.00;;;;;;4953672;29;20465;-63
2023/12/25 09:15:44;;;;;;;2.10;1.57;;;11.10;98.00;;;;;;4954060;29;20515;-63
2023/12/25 09:18:11;;;;;;;2.23;1.70;;;11.20;98.00;;;;;;4953732;29;20472;-64
2023/12/25 09:20:40;;;;;;;1.80;1.50;;;11.20;98.00;;;;;;4954076;29;20875;-64
2023/12/25 09:23:07;;;;;;;2.03;1.60;;;11.20;98.00;;;;;;4953830;28;20453;-64
2023/12/25 09:25:34;;;;;;;3.23;1.60;;;11.10;98.00;;;;;;4953968;29;20967;-64
2023/12/25 09:28:06;;;;;;;2.77;1.80;;;11.20;98.00;;;;;;4954082;29;20928;-64
2023/12/25 09:30:33;;;;;;;2.43;1.60;;;11.20;98.00;;;;;;4953829;29;20574;-64
2023/12/25 09:33:00;;;;;;;1.87;1.50;;;11.20;98.00;;;;;;4954045;29;20462;-64
2023/12/25 09:35:27;;;;;;;2.83;1.90;;;11.30;98.00;;;;;;4953710;29;20466;-64
2023/12/25 09:37:54;;;;;;;2.80;1.80;;;11.30;98.00;;;;;;4953969;29;20469;-63
2023/12/25 09:40:21;;;;;;;3.07;2.10;;;11.30;98.00;;;;;;4953785;29;20497;-64
2023/12/25 09:42:49;;;;;;;1.80;1.47;;;11.40;98.00;;;;;;4953515;29;20464;-64
2023/12/25 09:45:18;;;;;;;1.80;1.47;;;11.30;98.00;;;;;;4953873;29;20457;-64
2023/12/25 09:47:46;;;;;;;2.60;1.80;;;11.30;98.00;;;;;;4937123;29;20807;-64
2023/12/25 09:50:17;;;;;;;3.17;2.20;;;11.20;98.00;;;;;;4953764;29;20459;-64
2023/12/25 09:52:44;;;;;;;2.43;1.60;;;11.20;98.00;;;;;;4936582;29;20456;-64
2023/12/25 09:55:13;;;;;;;1.83;1.47;;;11.10;98.00;;;;;;4953766;29;20455;-64
2023/12/25 09:57:41;;;;;;;1.87;1.60;;;11.20;98.00;;;;;;4953735;29;20874;-63
2023/12/25 10:00:10;;;;;;;2.60;1.70;;;11.20;98.00;;;;;;4953817;29;20461;-63
2023/12/25 10:02:41;;;;;;;1.73;1.57;;;11.20;98.00;;;;;;4953762;29;20534;-64
2023/12/25 10:05:09;;;;;;;2.00;1.63;;;11.20;98.00;;;;;;4936493;29;20798;-63
2023/12/25 10:07:44;;;;;;;2.30;1.57;;;11.20;98.00;;;;;;4953524;29;20495;-64
2023/12/25 10:10:13;;;;;;;2.17;1.63;;;11.30;98.00;;;;;;4953471;29;20454;-64
2023/12/25 10:12:44;;;;;;;1.87;1.50;;;11.30;98.00;;;;;;4953548;29;20799;-64
2023/12/25 10:15:12;;;;;;;2.10;1.40;;;11.30;98.00;;;;;;4953584;29;20552;-64
2023/12/25 10:17:39;;;;;;;2.47;1.77;;;11.40;98.00;;;;;;4953220;29;20464;-63
2023/12/25 10:20:08;;;;;;;2.30;1.70;;;11.40;98.00;;;;;;4953366;29;20453;-64
2023/12/25 10:22:38;;;;;;;1.63;1.47;;;11.30;98.00;;;;;;4953335;29;21027;-64
2023/12/25 10:25:09;;;;;;;2.30;1.60;;;11.40;98.00;;;;;;4953473;29;20817;-64
2023/12/25 10:27:39;;;;;;;2.43;1.73;;;11.40;98.00;;;;;;4953177;29;20522;-64
2023/12/25 10:30:16;;;;;;;1.60;1.50;;;11.40;98.00;;;;;;4953249;29;20460;-64
2023/12/25 10:32:43;;;;;;;2.13;1.70;;;11.40;98.00;;;;;;4953175;29;20473;-64
2023/12/25 10:35:13;;;;;;;2.10;1.53;;;11.50;98.00;;;;;;4937728;29;20454;-63
2023/12/25 10:37:41;;;;;;;1.90;1.50;;;11.50;98.00;;;;;;4956664;29;20626;-63
2023/12/25 10:40:20;;;;;;;2.70;1.87;;;11.50;98.00;;;;;;4956301;29;20456;-63
2023/12/25 10:42:50;;;;;;;2.70;1.70;;;11.60;98.00;;;;;;4957036;29;20456;-63
2023/12/25 10:45:22;;;;;;;1.87;1.60;;;11.70;98.00;;;;;;4956684;29;20460;-64
2023/12/25 10:47:52;;;;;;;2.37;1.60;;;11.70;98.00;;;;;;4955892;29;20966;-65
2023/12/25 10:50:21;;;;;;;2.07;1.60;;;11.70;98.00;;;;;;4955854;29;20992;-65
2023/12/25 10:52:49;;;;;;;2.00;1.60;;;11.80;98.00;;;;;;4956340;29;20453;-65
2023/12/25 10:55:24;;;;;;;3.90;1.80;;;11.80;98.00;;;;;;4956603;29;20887;-65
2023/12/25 10:57:53;;;;;;;2.03;1.50;;;11.80;98.00;;;;;;4956630;29;20459;-66
2023/12/25 11:00:23;;;;;;;1.50;1.40;;;11.70;98.00;;;;;;4956458;29;20531;-66
2023/12/25 11:02:55;;;;;;;1.90;1.80;;;11.70;98.00;;;;;;4956651;29;20542;-66
2023/12/25 11:05:22;;;;;;;2.43;1.60;;;11.70;98.00;;;;;;4956639;29;20556;-65
2023/12/25 11:07:50;;;;;;;3.17;1.70;;;11.70;98.00;;;;;;4956315;29;20527;-65
2023/12/25 11:10:18;;;;;;;2.70;1.50;;;11.60;98.00;;;;;;4956429;29;20460;-66
2023/12/25 11:12:50;;;;;;;1.87;1.50;;;11.60;98.00;;;;;;4956354;29;20467;-66
2023/12/25 11:15:18;;;;;;;3.90;1.60;;;11.70;98.00;;;;;;4956261;29;20476;-66
2023/12/25 11:17:46;;;;;;;2.27;1.53;;;11.80;98.00;;;;;;4955800;29;20472;-65
2023/12/25 11:20:13;;;;;;;2.00;1.50;;;11.70;98.00;;;;;;4939016;29;20808;-65
2023/12/25 11:22:44;;;;;;;2.40;1.70;;;11.80;98.00;;;;;;4955973;29;20458;-65
2023/12/25 11:25:15;;;;;;;1.50;1.40;;;11.80;98.00;;;;;;4956161;29;20488;-65
2023/12/25 11:27:43;;;;;;;1.73;1.40;;;11.90;98.00;;;;;;4955664;29;20543;-65
2023/12/25 11:30:12;;;;;;;1.57;1.40;;;11.90;98.00;;;;;;4955795;29;20536;-65
2023/12/25 11:32:45;;;;;;;1.80;1.43;;;11.90;98.00;;;;;;4955865;29;20496;-65
2023/12/25 11:35:13;;;;;;;1.93;1.50;;;11.80;98.00;;;;;;4956169;29;20482;-65
2023/12/25 11:37:40;;;;;;;2.07;1.67;;;11.80;98.00;;;;;;4955889;29;20493;-65
2023/12/25 11:40:08;;;;;;;2.23;1.67;;;11.80;98.00;;;;;;4955276;29;20451;-65
2023/12/25 11:42:37;;;;;;;1.53;1.40;;;11.80;98.00;;;;;;4937937;29;20470;-65
2023/12/25 11:45:09;;;;;;;1.80;1.40;;;11.80;98.00;;;;;;4955689;29;20456;-66
2023/12/25 11:47:44;;;;;;;1.40;1.20;;;11.90;98.00;;;;;;4954424;28;20488;-65
2023/12/25 11:50:14;;;;;;;1.40;1.30;;;11.90;98.00;;;;;;4955579;29;20490;-65
2023/12/25 11:52:55;;;;;;;2.00;1.43;;;11.90;98.00;;;;;;4955197;29;20482;-65
2023/12/25 11:55:24;;;;;;;1.43;1.37;;;11.80;98.00;;;;;;4955528;29;20979;-65
2023/12/25 11:57:55;;;;;;;1.57;1.23;;;11.90;98.00;;;;;;4955523;29;20954;-65
2023/12/25 12:00:24;;;;;;;2.33;1.53;;;11.90;98.00;;;;;;4956085;29;20481;-65
2023/12/25 12:02:55;;;;;;;1.37;1.30;;;11.90;98.00;;;;;;4955431;29;20492;-65
2023/12/25 12:05:22;;;;;;;1.43;1.30;;;11.90;98.00;;;;;;4955653;29;20472;-65
2023/12/25 12:07:51;;;;;;;1.83;1.30;;;11.90;98.00;;;;;;4955368;29;20461;-64
2023/12/25 12:10:18;;;;;;;1.50;1.30;;;11.90;98.00;;;;;;4938058;29;20495;-64
2023/12/25 12:12:45;;;;;;;1.80;1.30;;;11.90;98.00;;;;;;4955006;29;20580;-64
2023/12/25 12:15:13;;;;;;;1.50;1.40;;;11.90;98.00;;;;;;4955228;29;20489;-64
2023/12/25 12:17:41;;;;;;;1.70;1.33;;;11.90;98.00;;;;;;4954802;29;20465;-64
2023/12/25 12:20:10;;;;;;;1.90;1.50;;;11.90;98.00;;;;;;4955052;29;20462;-64
2023/12/25 12:22:37;;;;;;;1.47;1.30;;;11.90;98.00;;;;;;4937773;29;20443;-65
2023/12/25 12:25:14;;;;;;;1.30;1.30;;;11.90;98.00;;;;;;4955013;29;20455;-65
2023/12/25 12:27:41;;;;;;;3.27;1.33;;;11.90;98.00;;;;;;4954463;29;20457;-65
2023/12/25 12:30:10;;;;;;;1.80;1.50;;;11.90;98.00;;;;;;4954792;29;20861;-65
2023/12/25 12:32:41;;;;;;;2.50;1.40;;;11.90;98.00;;;;;;4954622;29;20524;-66
2023/12/25 12:35:10;;;;;;;1.60;1.50;;;11.90;98.00;;;;;;4954680;29;20491;-64
2023/12/25 12:37:37;;;;;;;1.43;1.13;;;11.90;98.00;;;;;;4954640;29;20461;-64
2023/12/25 12:40:05;;;;;;;1.67;1.40;;;11.90;98.00;;;;;;4953445;29;20469;-65
2023/12/25 12:42:33;;;;;;;1.43;1.30;;;12.00;98.00;;;;;;4954253;29;20476;-65
2023/12/25 12:45:02;;;;;;;1.63;1.37;;;11.90;98.00;;;;;;4954769;29;20461;-65
2023/12/25 12:47:29;;;;;;;1.40;1.30;;;12.00;98.00;;;;;;4953913;29;20478;-64
2023/12/25 12:49:57;;;;;;;1.70;1.10;;;11.90;98.00;;;;;;4953148;29;20467;-64
2023/12/25 12:52:27;;;;;;;1.53;1.33;;;11.90;98.00;;;;;;4954628;29;20549;-64
2023/12/25 12:54:54;;;;;;;2.30;1.63;;;11.80;98.00;;;;;;4954620;29;20461;-64
2023/12/25 12:57:23;;;;;;;1.80;1.30;;;11.80;98.00;;;;;;4953974;28;20493;-64